sensor_id;sensor_type;location;lat;lon;timestamp;temperature;humidity
52879;DHT22;38747;53.140;6.498;2022-08-06T00:00:38;12.80;99.90
52879;DHT22;38747;53.140;6.498;2022-08-06T00:03:04;12.80;99.90
52879;DHT22;38747;53.140;6.498;2022-08-06T00:05:29;12.80;99.90
52879;DHT22;38747;53.140;6.498;2022-08-06T00:07:55;12.80;99.90
52879;DHT22;38747;53.140;6.498;2022-08-06T00:10:24;12.70;99.90
52879;DHT22;38747;53.140;6.498;2022-08-06T00:12:51;12.70;99.90
52879;DHT22;38747;53.140;6.498;2022-08-06T00:15:17;12.70;99.90
52879;DHT22;38747;53.140;6.498;2022-08-06T00:17:46;12.70;99.90
52879;DHT22;38747;53.140;6.498;2022-08-06T00:20:13;12.70;99.90
52879;DHT22;38747;53.140;6.498;2022-08-06T00:22:39;12.70;99.90
52879;DHT22;38747;53.140;6.498;2022-08-06T00:25:05;12.70;99.90
52879;DHT22;38747;53.140;6.498;2022-08-06T00:27:33;12.60;99.90
52879;DHT22;38747;53.140;6.498;2022-08-06T00:29:59;12.60;99.90
52879;DHT22;38747;53.140;6.498;2022-08-06T00:32:24;12.60;99.90
52879;DHT22;38747;53.140;6.498;2022-08-06T00:34:50;12.60;99.90
52879;DHT22;38747;53.140;6.498;2022-08-06T00:37:16;12.60;99.90
52879;DHT22;38747;53.140;6.498;2022-08-06T00:39:41;12.50;99.90
52879;DHT22;38747;53.140;6.498;2022-08-06T00:42:07;12.50;99.90
52879;DHT22;38747;53.140;6.498;2022-08-06T00:44:32;12.40;99.90
52879;DHT22;38747;53.140;6.498;2022-08-06T00:46:59;12.40;99.90
52879;DHT22;38747;53.140;6.498;2022-08-06T00:49:24;12.40;99.90
52879;DHT22;38747;53.140;6.498;2022-08-06T00:51:50;12.30;99.90
52879;DHT22;38747;53.140;6.498;2022-08-06T00:54:16;12.30;99.90
52879;DHT22;38747;53.140;6.498;2022-08-06T00:56:42;12.30;99.90
52879;DHT22;38747;53.140;6.498;2022-08-06T00:59:07;12.30;99.90
52879;DHT22;38747;53.140;6.498;2022-08-06T01:01:33;12.20;99.90
52879;DHT22;38747;53.140;6.498;2022-08-06T01:03:59;12.20;99.90
52879;DHT22;38747;53.140;6.498;2022-08-06T01:06:24;12.20;99.90
52879;DHT22;38747;53.140;6.498;2022-08-06T01:08:50;12.20;99.90
52879;DHT22;38747;53.140;6.498;2022-08-06T01:11:16;12.10;99.90
52879;DHT22;38747;53.140;6.498;2022-08-06T01:13:41;12.00;99.90
52879;DHT22;38747;53.140;6.498;2022-08-06T01:18:40;12.00;99.90
52879;DHT22;38747;53.140;6.498;2022-08-06T01:21:13;11.90;99.90
52879;DHT22;38747;53.140;6.498;2022-08-06T01:29:30;11.80;99.90
52879;DHT22;38747;53.140;6.498;2022-08-06T01:32:13;11.80;99.90
52879;DHT22;38747;53.140;6.498;2022-08-06T01:34:49;11.80;99.90
52879;DHT22;38747;53.140;6.498;2022-08-06T01:37:28;11.70;99.90
52879;DHT22;38747;53.140;6.498;2022-08-06T01:39:58;11.70;99.90
52879;DHT22;38747;53.140;6.498;2022-08-06T01:42:28;11.60;99.90
52879;DHT22;38747;53.140;6.498;2022-08-06T01:44:56;11.60;99.90
52879;DHT22;38747;53.140;6.498;2022-08-06T01:47:27;11.50;99.90
52879;DHT22;38747;53.140;6.498;2022-08-06T01:49:57;11.50;99.90
52879;DHT22;38747;53.140;6.498;2022-08-06T01:52:24;11.50;99.90
52879;DHT22;38747;53.140;6.498;2022-08-06T01:54:51;11.50;99.90
52879;DHT22;38747;53.140;6.498;2022-08-06T01:57:19;11.50;99.90
52879;DHT22;38747;53.140;6.498;2022-08-06T01:59:48;11.50;99.90
52879;DHT22;38747;53.140;6.498;2022-08-06T02:02:27;11.50;99.90
52879;DHT22;38747;53.140;6.498;2022-08-06T02:04:56;11.40;99.90
52879;DHT22;38747;53.140;6.498;2022-08-06T02:07:27;11.30;99.90
52879;DHT22;38747;53.140;6.498;2022-08-06T02:09:57;11.20;99.90
52879;DHT22;38747;53.140;6.498;2022-08-06T02:12:26;11.10;99.90
52879;DHT22;38747;53.140;6.498;2022-08-06T02:15:09;11.10;99.90
52879;DHT22;38747;53.140;6.498;2022-08-06T02:17:45;11.00;99.90
52879;DHT22;38747;53.140;6.498;2022-08-06T02:20:13;11.00;99.90
52879;DHT22;38747;53.140;6.498;2022-08-06T02:22:41;11.00;99.90
52879;DHT22;38747;53.140;6.498;2022-08-06T02:25:10;10.90;99.90
52879;DHT22;38747;53.140;6.498;2022-08-06T02:27:40;10.90;99.90
52879;DHT22;38747;53.140;6.498;2022-08-06T02:30:07;10.90;99.90
52879;DHT22;38747;53.140;6.498;2022-08-06T02:32:33;10.90;99.90
52879;DHT22;38747;53.140;6.498;2022-08-06T02:34:58;10.80;99.90
52879;DHT22;38747;53.140;6.498;2022-08-06T02:37:32;10.80;99.90
52879;DHT22;38747;53.140;6.498;2022-08-06T02:40:09;10.80;99.90
52879;DHT22;38747;53.140;6.498;2022-08-06T02:42:42;10.80;99.90
52879;DHT22;38747;53.140;6.498;2022-08-06T02:45:19;10.80;99.90
52879;DHT22;38747;53.140;6.498;2022-08-06T02:50:45;10.80;99.90
52879;DHT22;38747;53.140;6.498;2022-08-06T02:53:39;10.70;99.90
52879;DHT22;38747;53.140;6.498;2022-08-06T02:56:11;10.70;99.90
52879;DHT22;38747;53.140;6.498;2022-08-06T02:58:43;10.60;99.90
52879;DHT22;38747;53.140;6.498;2022-08-06T03:01:12;10.60;99.90
52879;DHT22;38747;53.140;6.498;2022-08-06T03:03:41;10.60;99.90
52879;DHT22;38747;53.140;6.498;2022-08-06T03:06:08;10.60;99.90
52879;DHT22;38747;53.140;6.498;2022-08-06T03:08:35;10.50;99.90
52879;DHT22;38747;53.140;6.498;2022-08-06T03:11:01;10.50;99.90
52879;DHT22;38747;53.140;6.498;2022-08-06T03:13:29;10.50;99.90
52879;DHT22;38747;53.140;6.498;2022-08-06T03:15:56;10.50;99.90
52879;DHT22;38747;53.140;6.498;2022-08-06T03:18:23;10.60;99.90
52879;DHT22;38747;53.140;6.498;2022-08-06T03:20:50;10.50;99.90
52879;DHT22;38747;53.140;6.498;2022-08-06T03:23:17;10.50;99.90
52879;DHT22;38747;53.140;6.498;2022-08-06T03:25:43;10.50;99.90
52879;DHT22;38747;53.140;6.498;2022-08-06T03:28:10;10.50;99.90
52879;DHT22;38747;53.140;6.498;2022-08-06T03:30:38;10.50;99.90
52879;DHT22;38747;53.140;6.498;2022-08-06T03:33:14;10.50;99.90
52879;DHT22;38747;53.140;6.498;2022-08-06T03:35:40;10.50;99.90
52879;DHT22;38747;53.140;6.498;2022-08-06T03:38:10;10.50;99.90
52879;DHT22;38747;53.140;6.498;2022-08-06T03:40:38;10.50;99.90
52879;DHT22;38747;53.140;6.498;2022-08-06T03:43:05;10.50;99.90
52879;DHT22;38747;53.140;6.498;2022-08-06T03:45:30;10.50;99.90
52879;DHT22;38747;53.140;6.498;2022-08-06T03:47:58;10.40;99.90
52879;DHT22;38747;53.140;6.498;2022-08-06T03:50:32;10.40;99.90
52879;DHT22;38747;53.140;6.498;2022-08-06T03:53:04;10.30;99.90
52879;DHT22;38747;53.140;6.498;2022-08-06T03:55:34;10.30;99.90
52879;DHT22;38747;53.140;6.498;2022-08-06T03:58:04;10.20;99.90
52879;DHT22;38747;53.140;6.498;2022-08-06T04:00:35;10.20;99.90
52879;DHT22;38747;53.140;6.498;2022-08-06T04:03:03;10.20;99.90
52879;DHT22;38747;53.140;6.498;2022-08-06T04:05:31;10.20;99.90
52879;DHT22;38747;53.140;6.498;2022-08-06T04:08:00;10.10;99.90
52879;DHT22;38747;53.140;6.498;2022-08-06T04:10:30;10.10;99.90
52879;DHT22;38747;53.140;6.498;2022-08-06T04:12:57;10.10;99.90
52879;DHT22;38747;53.140;6.498;2022-08-06T04:15:23;10.20;99.90
52879;DHT22;38747;53.140;6.498;2022-08-06T04:17:50;10.10;99.90
52879;DHT22;38747;53.140;6.498;2022-08-06T04:20:20;10.10;99.90
52879;DHT22;38747;53.140;6.498;2022-08-06T04:22:47;10.10;99.90
52879;DHT22;38747;53.140;6.498;2022-08-06T04:25:14;10.20;99.90
52879;DHT22;38747;53.140;6.498;2022-08-06T04:27:41;10.20;99.90
52879;DHT22;38747;53.140;6.498;2022-08-06T04:30:08;10.20;99.90
52879;DHT22;38747;53.140;6.498;2022-08-06T04:32:35;10.30;99.90
52879;DHT22;38747;53.140;6.498;2022-08-06T04:35:05;10.40;99.90
52879;DHT22;38747;53.140;6.498;2022-08-06T04:37:33;10.50;99.90
52879;DHT22;38747;53.140;6.498;2022-08-06T04:40:00;10.60;99.90
52879;DHT22;38747;53.140;6.498;2022-08-06T04:42:25;10.60;99.90
52879;DHT22;38747;53.140;6.498;2022-08-06T04:44:52;10.70;99.90
52879;DHT22;38747;53.140;6.498;2022-08-06T04:47:18;10.70;99.90
52879;DHT22;38747;53.140;6.498;2022-08-06T04:49:44;10.80;99.90
52879;DHT22;38747;53.140;6.498;2022-08-06T04:52:23;10.90;99.90
52879;DHT22;38747;53.140;6.498;2022-08-06T04:54:49;10.90;99.90
52879;DHT22;38747;53.140;6.498;2022-08-06T04:57:15;10.90;99.90
52879;DHT22;38747;53.140;6.498;2022-08-06T04:59:40;10.90;99.90
52879;DHT22;38747;53.140;6.498;2022-08-06T05:02:06;10.80;99.90
52879;DHT22;38747;53.140;6.498;2022-08-06T05:04:33;10.80;99.90
52879;DHT22;38747;53.140;6.498;2022-08-06T05:07:13;10.80;99.90
52879;DHT22;38747;53.140;6.498;2022-08-06T05:09:40;10.70;99.90
52879;DHT22;38747;53.140;6.498;2022-08-06T05:15:33;10.70;99.90
52879;DHT22;38747;53.140;6.498;2022-08-06T05:18:13;10.80;99.90
52879;DHT22;38747;53.140;6.498;2022-08-06T05:20:41;10.90;99.90
52879;DHT22;38747;53.140;6.498;2022-08-06T05:23:13;10.90;99.90
52879;DHT22;38747;53.140;6.498;2022-08-06T05:25:40;10.90;99.90
52879;DHT22;38747;53.140;6.498;2022-08-06T05:28:06;11.00;99.90
52879;DHT22;38747;53.140;6.498;2022-08-06T05:30:32;11.00;99.90
52879;DHT22;38747;53.140;6.498;2022-08-06T05:32:58;11.10;99.90
52879;DHT22;38747;53.140;6.498;2022-08-06T05:35:24;11.20;99.90
52879;DHT22;38747;53.140;6.498;2022-08-06T05:37:52;11.40;99.90
52879;DHT22;38747;53.140;6.498;2022-08-06T05:40:18;11.50;99.90
52879;DHT22;38747;53.140;6.498;2022-08-06T05:42:44;11.70;99.90
52879;DHT22;38747;53.140;6.498;2022-08-06T05:45:11;11.80;99.90
52879;DHT22;38747;53.140;6.498;2022-08-06T05:47:40;11.90;99.90
52879;DHT22;38747;53.140;6.498;2022-08-06T05:50:11;12.00;99.90
52879;DHT22;38747;53.140;6.498;2022-08-06T05:55:28;12.00;99.90
52879;DHT22;38747;53.140;6.498;2022-08-06T05:58:00;12.10;99.90
52879;DHT22;38747;53.140;6.498;2022-08-06T06:00:30;12.10;99.90
52879;DHT22;38747;53.140;6.498;2022-08-06T06:02:59;12.20;99.90
52879;DHT22;38747;53.140;6.498;2022-08-06T06:05:25;12.40;99.90
52879;DHT22;38747;53.140;6.498;2022-08-06T06:07:54;12.50;99.90
52879;DHT22;38747;53.140;6.498;2022-08-06T06:10:22;12.60;99.90
52879;DHT22;38747;53.140;6.498;2022-08-06T06:12:49;12.70;99.90
52879;DHT22;38747;53.140;6.498;2022-08-06T06:15:15;12.80;99.90
52879;DHT22;38747;53.140;6.498;2022-08-06T06:20:46;12.90;99.90
52879;DHT22;38747;53.140;6.498;2022-08-06T06:23:26;13.00;99.90
52879;DHT22;38747;53.140;6.498;2022-08-06T06:26:27;13.10;99.90
52879;DHT22;38747;53.140;6.498;2022-08-06T06:29:17;13.30;99.90
52879;DHT22;38747;53.140;6.498;2022-08-06T06:31:54;13.50;99.90
52879;DHT22;38747;53.140;6.498;2022-08-06T06:34:29;13.70;99.90
52879;DHT22;38747;53.140;6.498;2022-08-06T06:37:23;14.00;99.90
52879;DHT22;38747;53.140;6.498;2022-08-06T06:39:56;14.30;99.90
52879;DHT22;38747;53.140;6.498;2022-08-06T06:42:29;14.40;99.90
52879;DHT22;38747;53.140;6.498;2022-08-06T06:45:24;14.60;99.90
52879;DHT22;38747;53.140;6.498;2022-08-06T06:47:59;14.70;99.90
52879;DHT22;38747;53.140;6.498;2022-08-06T06:50:32;14.60;99.90
52879;DHT22;38747;53.140;6.498;2022-08-06T06:52:58;14.70;99.90
52879;DHT22;38747;53.140;6.498;2022-08-06T06:55:37;14.70;99.90
52879;DHT22;38747;53.140;6.498;2022-08-06T06:58:10;14.80;99.90
52879;DHT22;38747;53.140;6.498;2022-08-06T07:00:37;14.80;99.90
52879;DHT22;38747;53.140;6.498;2022-08-06T07:03:04;14.80;99.90
52879;DHT22;38747;53.140;6.498;2022-08-06T07:05:32;14.90;99.90
52879;DHT22;38747;53.140;6.498;2022-08-06T07:08:00;14.90;99.90
52879;DHT22;38747;53.140;6.498;2022-08-06T07:10:28;15.00;99.90
52879;DHT22;38747;53.140;6.498;2022-08-06T07:12:55;15.00;99.90
52879;DHT22;38747;53.140;6.498;2022-08-06T07:15:22;15.10;99.90
52879;DHT22;38747;53.140;6.498;2022-08-06T07:17:49;15.10;99.90
52879;DHT22;38747;53.140;6.498;2022-08-06T07:20:27;15.20;99.90
52879;DHT22;38747;53.140;6.498;2022-08-06T07:22:55;15.30;99.90
52879;DHT22;38747;53.140;6.498;2022-08-06T07:25:21;15.30;99.90
52879;DHT22;38747;53.140;6.498;2022-08-06T07:27:50;15.40;99.90
52879;DHT22;38747;53.140;6.498;2022-08-06T07:30:18;15.50;99.90
52879;DHT22;38747;53.140;6.498;2022-08-06T07:32:45;15.60;99.90
52879;DHT22;38747;53.140;6.498;2022-08-06T07:35:12;15.70;99.90
52879;DHT22;38747;53.140;6.498;2022-08-06T07:37:43;15.70;99.90
52879;DHT22;38747;53.140;6.498;2022-08-06T07:40:23;15.80;99.90
52879;DHT22;38747;53.140;6.498;2022-08-06T07:42:54;15.90;99.90
52879;DHT22;38747;53.140;6.498;2022-08-06T07:45:27;15.90;99.90
52879;DHT22;38747;53.140;6.498;2022-08-06T07:47:56;16.00;99.90
52879;DHT22;38747;53.140;6.498;2022-08-06T07:50:24;16.10;99.90
52879;DHT22;38747;53.140;6.498;2022-08-06T07:52:55;16.20;99.90
52879;DHT22;38747;53.140;6.498;2022-08-06T07:55:22;16.30;99.90
52879;DHT22;38747;53.140;6.498;2022-08-06T07:57:52;16.40;99.90
52879;DHT22;38747;53.140;6.498;2022-08-06T08:00:18;16.50;99.90
52879;DHT22;38747;53.140;6.498;2022-08-06T08:02:44;16.70;99.90
52879;DHT22;38747;53.140;6.498;2022-08-06T08:05:30;16.80;99.90
52879;DHT22;38747;53.140;6.498;2022-08-06T08:08:14;17.00;99.90
52879;DHT22;38747;53.140;6.498;2022-08-06T08:10:41;17.20;99.90
52879;DHT22;38747;53.140;6.498;2022-08-06T08:13:08;17.40;99.90
52879;DHT22;38747;53.140;6.498;2022-08-06T08:15:34;17.50;99.90
52879;DHT22;38747;53.140;6.498;2022-08-06T08:17:59;17.50;99.90
52879;DHT22;38747;53.140;6.498;2022-08-06T08:20:29;17.40;99.90
52879;DHT22;38747;53.140;6.498;2022-08-06T08:22:55;17.40;99.90
52879;DHT22;38747;53.140;6.498;2022-08-06T08:25:21;17.30;99.90
52879;DHT22;38747;53.140;6.498;2022-08-06T08:27:46;17.30;99.90
52879;DHT22;38747;53.140;6.498;2022-08-06T08:30:12;17.30;99.90
52879;DHT22;38747;53.140;6.498;2022-08-06T08:32:37;17.30;99.90
52879;DHT22;38747;53.140;6.498;2022-08-06T08:35:03;17.40;99.90
52879;DHT22;38747;53.140;6.498;2022-08-06T08:37:29;17.60;99.90
52879;DHT22;38747;53.140;6.498;2022-08-06T08:39:54;17.80;99.90
52879;DHT22;38747;53.140;6.498;2022-08-06T08:42:27;17.90;99.90
52879;DHT22;38747;53.140;6.498;2022-08-06T08:44:54;18.00;99.90
52879;DHT22;38747;53.140;6.498;2022-08-06T08:47:22;18.20;99.90
52879;DHT22;38747;53.140;6.498;2022-08-06T08:49:50;18.30;99.90
52879;DHT22;38747;53.140;6.498;2022-08-06T08:52:21;18.30;99.90
52879;DHT22;38747;53.140;6.498;2022-08-06T08:54:51;18.40;99.90
52879;DHT22;38747;53.140;6.498;2022-08-06T08:57:18;18.40;99.90
52879;DHT22;38747;53.140;6.498;2022-08-06T08:59:43;18.50;99.90
52879;DHT22;38747;53.140;6.498;2022-08-06T09:02:11;18.40;99.90
52879;DHT22;38747;53.140;6.498;2022-08-06T09:04:37;18.20;99.90
52879;DHT22;38747;53.140;6.498;2022-08-06T09:07:03;17.90;99.90
52879;DHT22;38747;53.140;6.498;2022-08-06T09:09:29;17.70;99.90
52879;DHT22;38747;53.140;6.498;2022-08-06T09:11:56;17.50;99.90
52879;DHT22;38747;53.140;6.498;2022-08-06T09:14:22;17.30;99.90
52879;DHT22;38747;53.140;6.498;2022-08-06T09:16:48;17.20;99.90
52879;DHT22;38747;53.140;6.498;2022-08-06T09:19:15;17.10;99.90
52879;DHT22;38747;53.140;6.498;2022-08-06T09:21:41;17.00;99.90
52879;DHT22;38747;53.140;6.498;2022-08-06T09:24:08;17.00;99.90
52879;DHT22;38747;53.140;6.498;2022-08-06T09:26:34;17.10;99.90
52879;DHT22;38747;53.140;6.498;2022-08-06T09:28:59;17.10;99.90
52879;DHT22;38747;53.140;6.498;2022-08-06T09:31:25;17.10;99.90
52879;DHT22;38747;53.140;6.498;2022-08-06T09:34:01;17.20;99.90
52879;DHT22;38747;53.140;6.498;2022-08-06T09:36:28;17.30;99.90
52879;DHT22;38747;53.140;6.498;2022-08-06T09:38:57;17.20;99.90
52879;DHT22;38747;53.140;6.498;2022-08-06T09:41:26;17.30;99.90
52879;DHT22;38747;53.140;6.498;2022-08-06T09:43:53;17.70;99.90
52879;DHT22;38747;53.140;6.498;2022-08-06T09:49:08;18.70;99.90
52879;DHT22;38747;53.140;6.498;2022-08-06T09:51:34;19.10;99.90
52879;DHT22;38747;53.140;6.498;2022-08-06T09:54:01;19.10;99.90
52879;DHT22;38747;53.140;6.498;2022-08-06T09:56:28;19.10;99.90
52879;DHT22;38747;53.140;6.498;2022-08-06T09:59:03;19.00;99.90
52879;DHT22;38747;53.140;6.498;2022-08-06T10:01:29;18.90;99.90
52879;DHT22;38747;53.140;6.498;2022-08-06T10:03:56;18.80;99.90
52879;DHT22;38747;53.140;6.498;2022-08-06T10:06:22;18.70;99.90
52879;DHT22;38747;53.140;6.498;2022-08-06T10:08:49;18.70;99.90
52879;DHT22;38747;53.140;6.498;2022-08-06T10:11:32;18.80;99.90
52879;DHT22;38747;53.140;6.498;2022-08-06T10:13:58;18.80;99.90
52879;DHT22;38747;53.140;6.498;2022-08-06T10:16:23;18.80;99.90
52879;DHT22;38747;53.140;6.498;2022-08-06T10:18:52;18.90;99.90
52879;DHT22;38747;53.140;6.498;2022-08-06T10:21:20;19.00;99.90
52879;DHT22;38747;53.140;6.498;2022-08-06T10:23:50;19.10;99.90
52879;DHT22;38747;53.140;6.498;2022-08-06T10:26:19;19.10;99.90
52879;DHT22;38747;53.140;6.498;2022-08-06T10:28:48;19.10;99.90
52879;DHT22;38747;53.140;6.498;2022-08-06T10:31:15;19.20;99.90
52879;DHT22;38747;53.140;6.498;2022-08-06T10:33:47;19.20;99.90
52879;DHT22;38747;53.140;6.498;2022-08-06T10:36:14;19.20;99.90
52879;DHT22;38747;53.140;6.498;2022-08-06T10:38:43;19.30;99.90
52879;DHT22;38747;53.140;6.498;2022-08-06T10:41:12;19.50;99.90
52879;DHT22;38747;53.140;6.498;2022-08-06T10:43:38;19.50;99.90
52879;DHT22;38747;53.140;6.498;2022-08-06T10:46:07;19.50;99.90
52879;DHT22;38747;53.140;6.498;2022-08-06T10:48:35;19.50;99.90
52879;DHT22;38747;53.140;6.498;2022-08-06T10:51:06;19.50;99.90
52879;DHT22;38747;53.140;6.498;2022-08-06T10:53:37;19.40;99.90
52879;DHT22;38747;53.140;6.498;2022-08-06T10:56:05;19.40;99.90
52879;DHT22;38747;53.140;6.498;2022-08-06T10:58:32;19.50;99.90
52879;DHT22;38747;53.140;6.498;2022-08-06T11:01:00;19.40;99.90
52879;DHT22;38747;53.140;6.498;2022-08-06T11:15:06;19.50;99.90
52879;DHT22;38747;53.140;6.498;2022-08-06T11:18:07;19.40;99.90
52879;DHT22;38747;53.140;6.498;2022-08-06T11:23:01;20.00;99.90
52879;DHT22;38747;53.140;6.498;2022-08-06T11:25:37;20.30;99.90
52879;DHT22;38747;53.140;6.498;2022-08-06T11:28:03;20.30;99.90
52879;DHT22;38747;53.140;6.498;2022-08-06T11:30:41;20.10;99.90
52879;DHT22;38747;53.140;6.498;2022-08-06T11:33:08;20.00;99.90
52879;DHT22;38747;53.140;6.498;2022-08-06T11:38:01;19.70;99.90
52879;DHT22;38747;53.140;6.498;2022-08-06T11:40:27;19.70;99.90
52879;DHT22;38747;53.140;6.498;2022-08-06T11:42:53;19.60;99.90
52879;DHT22;38747;53.140;6.498;2022-08-06T11:45:19;19.80;99.90
52879;DHT22;38747;53.140;6.498;2022-08-06T11:48:04;20.20;99.90
52879;DHT22;38747;53.140;6.498;2022-08-06T11:50:30;20.80;99.50
52879;DHT22;38747;53.140;6.498;2022-08-06T11:52:55;21.20;99.90
52879;DHT22;38747;53.140;6.498;2022-08-06T11:55:21;21.40;99.90
52879;DHT22;38747;53.140;6.498;2022-08-06T11:57:46;21.70;99.90
52879;DHT22;38747;53.140;6.498;2022-08-06T12:00:16;21.90;99.40
52879;DHT22;38747;53.140;6.498;2022-08-06T12:07:44;21.60;97.00
52879;DHT22;38747;53.140;6.498;2022-08-06T12:10:12;21.60;98.20
52879;DHT22;38747;53.140;6.498;2022-08-06T12:12:46;21.80;98.60
52879;DHT22;38747;53.140;6.498;2022-08-06T12:17:38;21.80;98.50
52879;DHT22;38747;53.140;6.498;2022-08-06T12:20:05;21.70;96.30
52879;DHT22;38747;53.140;6.498;2022-08-06T12:22:35;21.70;98.10
52879;DHT22;38747;53.140;6.498;2022-08-06T12:25:06;21.50;97.00
52879;DHT22;38747;53.140;6.498;2022-08-06T12:27:34;21.60;97.70
52879;DHT22;38747;53.140;6.498;2022-08-06T12:30:01;21.50;98.40
52879;DHT22;38747;53.140;6.498;2022-08-06T12:32:30;21.30;97.20
52879;DHT22;38747;53.140;6.498;2022-08-06T12:34:58;21.20;97.10
52879;DHT22;38747;53.140;6.498;2022-08-06T12:37:39;21.10;95.90
52879;DHT22;38747;53.140;6.498;2022-08-06T12:40:16;21.00;98.00
52879;DHT22;38747;53.140;6.498;2022-08-06T12:45:27;21.00;98.30
52879;DHT22;38747;53.140;6.498;2022-08-06T12:48:00;21.20;97.90
52879;DHT22;38747;53.140;6.498;2022-08-06T12:50:27;21.50;97.50
52879;DHT22;38747;53.140;6.498;2022-08-06T12:55:34;21.80;93.20
52879;DHT22;38747;53.140;6.498;2022-08-06T12:58:00;21.80;96.30
52879;DHT22;38747;53.140;6.498;2022-08-06T13:00:27;22.00;97.70
52879;DHT22;38747;53.140;6.498;2022-08-06T13:02:54;22.10;96.50
52879;DHT22;38747;53.140;6.498;2022-08-06T13:05:21;22.10;95.90
52879;DHT22;38747;53.140;6.498;2022-08-06T13:07:53;22.00;95.60
52879;DHT22;38747;53.140;6.498;2022-08-06T13:10:19;21.70;96.30
52879;DHT22;38747;53.140;6.498;2022-08-06T13:12:51;21.60;96.10
52879;DHT22;38747;53.140;6.498;2022-08-06T13:15:17;21.70;94.10
52879;DHT22;38747;53.140;6.498;2022-08-06T13:17:42;21.80;95.20
52879;DHT22;38747;53.140;6.498;2022-08-06T13:20:37;21.70;92.10
52879;DHT22;38747;53.140;6.498;2022-08-06T13:23:03;21.70;96.50
52879;DHT22;38747;53.140;6.498;2022-08-06T13:25:29;21.60;95.50
52879;DHT22;38747;53.140;6.498;2022-08-06T13:28:12;21.50;93.70
52879;DHT22;38747;53.140;6.498;2022-08-06T13:30:39;21.40;95.20
52879;DHT22;38747;53.140;6.498;2022-08-06T13:33:19;21.20;94.80
52879;DHT22;38747;53.140;6.498;2022-08-06T13:36:04;21.20;95.30
52879;DHT22;38747;53.140;6.498;2022-08-06T13:38:35;21.50;95.60
52879;DHT22;38747;53.140;6.498;2022-08-06T13:41:01;21.60;94.70
52879;DHT22;38747;53.140;6.498;2022-08-06T13:43:39;21.90;94.90
52879;DHT22;38747;53.140;6.498;2022-08-06T13:46:09;22.20;95.00
52879;DHT22;38747;53.140;6.498;2022-08-06T13:48:35;22.20;94.50
52879;DHT22;38747;53.140;6.498;2022-08-06T13:51:00;22.20;95.00
52879;DHT22;38747;53.140;6.498;2022-08-06T13:53:26;22.30;93.20
52879;DHT22;38747;53.140;6.498;2022-08-06T13:55:51;22.40;95.10
52879;DHT22;38747;53.140;6.498;2022-08-06T13:58:17;22.00;92.70
52879;DHT22;38747;53.140;6.498;2022-08-06T14:00:42;22.00;94.50
52879;DHT22;38747;53.140;6.498;2022-08-06T14:03:12;22.10;95.10
52879;DHT22;38747;53.140;6.498;2022-08-06T14:05:38;22.40;95.30
52879;DHT22;38747;53.140;6.498;2022-08-06T14:08:04;22.40;94.70
52879;DHT22;38747;53.140;6.498;2022-08-06T14:10:29;22.20;92.20
52879;DHT22;38747;53.140;6.498;2022-08-06T14:12:55;22.20;94.40
52879;DHT22;38747;53.140;6.498;2022-08-06T14:15:39;22.20;94.80
52879;DHT22;38747;53.140;6.498;2022-08-06T14:18:05;22.20;93.80
52879;DHT22;38747;53.140;6.498;2022-08-06T14:20:31;22.20;94.50
52879;DHT22;38747;53.140;6.498;2022-08-06T14:22:56;22.40;93.10
52879;DHT22;38747;53.140;6.498;2022-08-06T14:25:22;22.40;94.30
52879;DHT22;38747;53.140;6.498;2022-08-06T14:27:48;22.40;93.60
52879;DHT22;38747;53.140;6.498;2022-08-06T14:30:17;22.20;94.60
52879;DHT22;38747;53.140;6.498;2022-08-06T14:32:44;21.80;93.30
52879;DHT22;38747;53.140;6.498;2022-08-06T14:35:09;21.80;93.90
52879;DHT22;38747;53.140;6.498;2022-08-06T14:37:36;21.60;91.20
52879;DHT22;38747;53.140;6.498;2022-08-06T14:40:02;21.80;96.60
52879;DHT22;38747;53.140;6.498;2022-08-06T14:42:28;21.90;95.10
52879;DHT22;38747;53.140;6.498;2022-08-06T14:45:12;21.90;95.50
52879;DHT22;38747;53.140;6.498;2022-08-06T14:47:37;21.90;94.80
52879;DHT22;38747;53.140;6.498;2022-08-06T14:50:04;21.80;92.30
52879;DHT22;38747;53.140;6.498;2022-08-06T14:52:30;21.60;94.60
52879;DHT22;38747;53.140;6.498;2022-08-06T14:54:55;21.60;96.30
52879;DHT22;38747;53.140;6.498;2022-08-06T14:57:24;21.30;94.40
52879;DHT22;38747;53.140;6.498;2022-08-06T14:59:49;21.10;96.10
52879;DHT22;38747;53.140;6.498;2022-08-06T15:02:16;21.00;96.80
52879;DHT22;38747;53.140;6.498;2022-08-06T15:04:41;20.90;94.60
52879;DHT22;38747;53.140;6.498;2022-08-06T15:07:07;20.70;93.40
52879;DHT22;38747;53.140;6.498;2022-08-06T15:09:33;20.70;95.10
52879;DHT22;38747;53.140;6.498;2022-08-06T15:11:59;20.60;94.20
52879;DHT22;38747;53.140;6.498;2022-08-06T15:14:26;20.60;95.00
52879;DHT22;38747;53.140;6.498;2022-08-06T15:16:54;20.70;98.80
52879;DHT22;38747;53.140;6.498;2022-08-06T15:19:20;20.70;97.10
52879;DHT22;38747;53.140;6.498;2022-08-06T15:21:46;20.40;96.70
52879;DHT22;38747;53.140;6.498;2022-08-06T15:24:12;20.40;98.10
52879;DHT22;38747;53.140;6.498;2022-08-06T15:26:38;20.20;97.90
52879;DHT22;38747;53.140;6.498;2022-08-06T15:29:04;20.10;99.00
52879;DHT22;38747;53.140;6.498;2022-08-06T15:31:30;20.00;99.30
52879;DHT22;38747;53.140;6.498;2022-08-06T15:33:55;20.00;97.90
52879;DHT22;38747;53.140;6.498;2022-08-06T15:36:22;20.10;98.00
52879;DHT22;38747;53.140;6.498;2022-08-06T15:38:49;20.10;98.80
52879;DHT22;38747;53.140;6.498;2022-08-06T15:41:14;20.10;98.40
52879;DHT22;38747;53.140;6.498;2022-08-06T15:43:40;20.10;96.60
52879;DHT22;38747;53.140;6.498;2022-08-06T15:46:06;20.10;97.60
52879;DHT22;38747;53.140;6.498;2022-08-06T15:48:31;20.20;97.80
52879;DHT22;38747;53.140;6.498;2022-08-06T15:50:58;20.20;99.30
52879;DHT22;38747;53.140;6.498;2022-08-06T15:53:24;20.30;99.10
52879;DHT22;38747;53.140;6.498;2022-08-06T15:55:50;20.30;99.50
52879;DHT22;38747;53.140;6.498;2022-08-06T15:58:15;20.30;99.70
52879;DHT22;38747;53.140;6.498;2022-08-06T16:00:42;20.30;99.90
52879;DHT22;38747;53.140;6.498;2022-08-06T16:03:09;20.40;99.90
52879;DHT22;38747;53.140;6.498;2022-08-06T16:05:36;20.40;99.70
52879;DHT22;38747;53.140;6.498;2022-08-06T16:08:03;20.20;97.80
52879;DHT22;38747;53.140;6.498;2022-08-06T16:10:29;20.30;98.60
52879;DHT22;38747;53.140;6.498;2022-08-06T16:12:54;20.30;98.40
52879;DHT22;38747;53.140;6.498;2022-08-06T16:15:20;20.20;97.80
52879;DHT22;38747;53.140;6.498;2022-08-06T16:17:46;20.20;99.90
52879;DHT22;38747;53.140;6.498;2022-08-06T16:20:17;20.30;99.90
52879;DHT22;38747;53.140;6.498;2022-08-06T16:22:43;20.20;99.90
52879;DHT22;38747;53.140;6.498;2022-08-06T16:25:08;20.20;99.90
52879;DHT22;38747;53.140;6.498;2022-08-06T16:27:34;20.00;96.80
52879;DHT22;38747;53.140;6.498;2022-08-06T16:29:59;20.00;99.60
52879;DHT22;38747;53.140;6.498;2022-08-06T16:32:27;20.00;97.90